createdAt,value
2023-05-13T00:00:06.078Z,26
2023-05-13T00:01:07.758Z,26
2023-05-13T00:02:09.432Z,26
2023-05-13T00:03:11.319Z,26
2023-05-13T00:04:13.879Z,26
2023-05-13T00:05:15.479Z,26
2023-05-13T00:06:17.118Z,25.9
2023-05-13T00:07:19.000Z,25.9
2023-05-13T00:08:20.639Z,26
2023-05-13T00:09:22.245Z,26
2023-05-13T00:10:24.122Z,25.9
2023-05-13T00:11:26.233Z,25.9
2023-05-13T00:12:27.918Z,25.9
2023-05-13T00:13:29.804Z,25.9
2023-05-13T00:14:31.654Z,25.9
2023-05-13T00:15:33.627Z,25.9
2023-05-13T00:16:35.308Z,25.9
2023-05-13T00:17:37.339Z,25.9
2023-05-13T00:18:39.268Z,25.9
2023-05-13T00:19:40.975Z,25.9
2023-05-13T00:20:42.642Z,25.9
2023-05-13T00:21:44.244Z,25.9
2023-05-13T00:22:45.854Z,25.9
2023-05-13T00:23:47.444Z,25.9
2023-05-13T00:24:49.139Z,25.9
2023-05-13T00:25:51.012Z,25.9
2023-05-13T00:26:52.931Z,25.9
2023-05-13T00:27:54.574Z,25.8
2023-05-13T00:28:56.207Z,25.8
2023-05-13T00:29:57.965Z,25.8
2023-05-13T00:30:59.956Z,25.8
2023-05-13T00:32:01.774Z,25.8
2023-05-13T00:33:04.214Z,25.8
2023-05-13T00:34:06.148Z,25.9
2023-05-13T00:35:07.776Z,25.9
2023-05-13T00:36:09.409Z,25.9
2023-05-13T00:37:11.225Z,25.9
2023-05-13T00:38:12.910Z,25.9
2023-05-13T00:39:14.528Z,25.9
2023-05-13T00:40:16.187Z,25.8
2023-05-13T00:41:21.609Z,25.8
2023-05-13T00:42:23.247Z,25.8
2023-05-13T00:43:24.909Z,25.9
2023-05-13T00:44:26.574Z,25.9
2023-05-13T00:45:28.408Z,25.9
2023-05-13T00:46:30.784Z,25.9
2023-05-13T00:47:32.684Z,25.9
2023-05-13T00:48:34.757Z,25.9
2023-05-13T00:49:36.408Z,25.9
2023-05-13T00:50:38.009Z,25.9
2023-05-13T00:51:39.599Z,25.9
2023-05-13T00:52:41.260Z,25.9
2023-05-13T00:53:42.982Z,25.9
2023-05-13T00:54:44.609Z,25.9
2023-05-13T00:55:46.486Z,25.9
2023-05-13T00:56:48.433Z,25.9
2023-05-13T00:57:50.581Z,25.9
2023-05-13T00:58:52.433Z,25.9
2023-05-13T00:59:54.058Z,25.9
2023-05-13T01:00:55.687Z,25.9
2023-05-13T01:01:57.887Z,25.9
2023-05-13T01:03:00.036Z,25.9
2023-05-13T01:04:02.391Z,25.9
2023-05-13T01:05:04.251Z,25.9
2023-05-13T01:06:05.926Z,25.9
2023-05-13T01:07:07.548Z,25.9
2023-05-13T01:08:09.455Z,26
2023-05-13T01:09:11.339Z,26
2023-05-13T01:10:13.265Z,26
2023-05-13T01:11:15.133Z,25.9
2023-05-13T01:12:16.714Z,25.9
2023-05-13T01:13:18.458Z,26
2023-05-13T01:14:20.259Z,25.9
2023-05-13T01:15:22.030Z,26
2023-05-13T01:16:23.789Z,26
2023-05-13T01:17:25.803Z,26
2023-05-13T01:18:27.749Z,26
2023-05-13T01:19:29.884Z,26
2023-05-13T01:20:31.807Z,26
2023-05-13T01:21:33.641Z,26
2023-05-13T01:22:35.252Z,26
2023-05-13T01:23:36.838Z,26
2023-05-13T01:24:38.792Z,26
2023-05-13T01:25:40.714Z,25.9
2023-05-13T01:26:42.294Z,25.9
2023-05-13T01:27:44.121Z,25.9
2023-05-13T01:28:45.973Z,25.9
2023-05-13T01:29:47.892Z,25.9
2023-05-13T01:30:49.697Z,25.9
2023-05-13T01:31:51.525Z,25.9
2023-05-13T01:32:53.283Z,26
2023-05-13T01:33:55.229Z,26
2023-05-13T01:34:56.799Z,26
2023-05-13T01:35:58.691Z,26
2023-05-13T01:37:00.590Z,26
2023-05-13T01:38:02.438Z,26
2023-05-13T01:39:04.277Z,26
2023-05-13T01:40:14.548Z,26
2023-05-13T01:41:34.865Z,26
2023-05-13T01:42:36.757Z,26
2023-05-13T01:43:38.346Z,26
2023-05-13T01:44:40.250Z,26
2023-05-13T01:45:42.174Z,26
2023-05-13T01:46:44.083Z,26
2023-05-13T01:47:46.239Z,26
2023-05-13T01:48:48.193Z,26
2023-05-13T01:49:49.967Z,25.9
2023-05-13T01:50:51.901Z,25.8
2023-05-13T01:51:53.518Z,25.8
2023-05-13T01:52:55.106Z,25.5
2023-05-13T01:53:57.004Z,25.5
2023-05-13T01:54:58.823Z,25.5
2023-05-13T01:56:00.598Z,25.5
2023-05-13T01:57:02.244Z,25.4
2023-05-13T01:58:04.092Z,25.4
2023-05-13T01:59:05.935Z,25.4
2023-05-13T02:00:07.592Z,25.4
2023-05-13T02:01:09.272Z,25.4
2023-05-13T02:02:10.998Z,25.5
2023-05-13T02:03:13.477Z,25.5
2023-05-13T02:04:16.053Z,25.5
2023-05-13T02:05:17.955Z,25.5
2023-05-13T02:06:19.570Z,25.5
2023-05-13T02:07:21.498Z,25.5
2023-05-13T02:08:23.116Z,25.6
2023-05-13T02:09:24.712Z,25.6
2023-05-13T02:10:26.338Z,25.6
2023-05-13T02:11:28.314Z,25.6
2023-05-13T02:12:30.204Z,25.6
2023-05-13T02:13:31.899Z,25.6
2023-05-13T02:14:33.522Z,25.6
2023-05-13T02:15:35.187Z,25.7
2023-05-13T02:16:36.921Z,25.7
2023-05-13T02:17:39.021Z,25.7
2023-05-13T02:18:41.157Z,25.7
2023-05-13T02:19:43.563Z,25.7
2023-05-13T02:20:45.238Z,25.7
2023-05-13T02:21:47.148Z,25.7
2023-05-13T02:22:49.011Z,25.7
2023-05-13T02:23:50.857Z,25.7
2023-05-13T02:24:52.742Z,25.7
2023-05-13T02:25:54.409Z,25.7
2023-05-13T02:26:56.038Z,25.7
2023-05-13T02:27:57.913Z,25.7
2023-05-13T02:28:59.804Z,25.7
2023-05-13T02:30:01.658Z,25.7
2023-05-13T02:31:03.369Z,25.7
2023-05-13T02:32:05.200Z,25.7
2023-05-13T02:33:07.345Z,25.7
2023-05-13T02:34:09.545Z,25.7
2023-05-13T02:35:11.291Z,25.7
2023-05-13T02:36:12.997Z,25.7
2023-05-13T02:37:14.557Z,25.7
2023-05-13T02:38:16.479Z,25.8
2023-05-13T02:39:18.348Z,25.8
2023-05-13T02:40:20.078Z,25.8
2023-05-13T02:41:22.916Z,25.8
2023-05-13T02:42:24.666Z,25.8
2023-05-13T02:43:26.555Z,25.8
2023-05-13T02:44:28.492Z,25.8
2023-05-13T02:45:30.407Z,25.8
2023-05-13T02:46:32.285Z,25.8
2023-05-13T02:47:34.555Z,25.8
2023-05-13T02:48:36.268Z,25.8
2023-05-13T02:49:37.885Z,25.8
2023-05-13T02:50:39.615Z,25.8
2023-05-13T02:51:41.309Z,25.8
2023-05-13T02:52:43.065Z,25.8
2023-05-13T02:53:44.914Z,25.7
2023-05-13T02:54:46.853Z,25.7
2023-05-13T02:55:48.613Z,25.7
2023-05-13T02:56:50.238Z,25.7
2023-05-13T02:57:51.825Z,25.7
2023-05-13T02:58:53.655Z,25.7
2023-05-13T02:59:55.568Z,25.7
2023-05-13T03:00:57.496Z,25.7
2023-05-13T03:01:59.508Z,25.7
2023-05-13T03:03:01.426Z,25.8
2023-05-13T03:04:03.944Z,25.8
2023-05-13T03:05:05.861Z,25.8
2023-05-13T03:06:07.760Z,25.8
2023-05-13T03:07:09.633Z,25.7
2023-05-13T03:08:11.423Z,25.7
2023-05-13T03:09:13.286Z,25.7
2023-05-13T03:10:15.129Z,25.8
2023-05-13T03:11:17.157Z,25.8
2023-05-13T03:12:18.933Z,25.8
2023-05-13T03:13:20.716Z,25.8
2023-05-13T03:14:22.533Z,25.8
2023-05-13T03:15:24.432Z,25.8
2023-05-13T03:16:26.356Z,25.8
2023-05-13T03:17:28.475Z,25.8
2023-05-13T03:18:30.352Z,25.8
2023-05-13T03:19:34.869Z,25.8
2023-05-13T03:20:36.739Z,25.8
2023-05-13T03:21:38.691Z,25.8
2023-05-13T03:22:40.639Z,25.8
2023-05-13T03:23:42.502Z,25.8
2023-05-13T03:24:44.423Z,25.8
2023-05-13T03:25:46.346Z,25.8
2023-05-13T03:26:48.275Z,25.8
2023-05-13T03:27:50.160Z,25.8
2023-05-13T03:28:51.916Z,25.8
2023-05-13T03:29:53.755Z,25.8
2023-05-13T03:30:55.569Z,25.8
2023-05-13T03:32:00.423Z,25.8
2023-05-13T03:33:02.254Z,25.8
2023-05-13T03:34:04.228Z,25.8
2023-05-13T03:35:06.063Z,25.8
2023-05-13T03:36:07.941Z,25.8
2023-05-13T03:37:09.814Z,25.8
2023-05-13T03:38:11.705Z,25.8
2023-05-13T03:39:13.513Z,25.8
2023-05-13T03:40:15.300Z,25.8
2023-05-13T03:41:17.193Z,25.8
2023-05-13T03:42:19.196Z,25.8
2023-05-13T03:43:21.101Z,25.8
2023-05-13T03:44:22.758Z,25.8
2023-05-13T03:45:24.586Z,25.8
2023-05-13T03:46:26.349Z,25.8
2023-05-13T03:47:28.362Z,25.8
2023-05-13T03:48:30.452Z,25.8
2023-05-13T03:49:32.351Z,25.9
2023-05-13T03:50:33.953Z,25.9
2023-05-13T03:51:35.792Z,25.9
2023-05-13T03:52:37.661Z,25.9
2023-05-13T03:53:39.484Z,25.9
2023-05-13T03:54:41.397Z,25.9
2023-05-13T03:55:43.281Z,25.9
2023-05-13T03:56:44.998Z,25.9
2023-05-13T03:57:46.652Z,25.9
2023-05-13T03:58:48.227Z,25.9
2023-05-13T03:59:49.849Z,25.9
2023-05-13T04:00:51.413Z,25.9
2023-05-13T04:01:53.112Z,25.9
2023-05-13T04:02:55.039Z,25.9
2023-05-13T04:03:57.439Z,25.9
2023-05-13T04:04:59.372Z,25.9
2023-05-13T04:06:01.123Z,25.9
2023-05-13T04:07:03.050Z,25.9
2023-05-13T04:08:05.090Z,25.9
2023-05-13T04:09:06.925Z,25.9
2023-05-13T04:10:08.679Z,26
2023-05-13T04:11:10.296Z,25.9
2023-05-13T04:12:12.012Z,26
2023-05-13T04:13:13.670Z,26
2023-05-13T04:14:15.294Z,26
2023-05-13T04:15:16.914Z,26
2023-05-13T04:16:18.659Z,26
2023-05-13T04:17:20.796Z,26
2023-05-13T04:18:22.739Z,26
2023-05-13T04:19:24.607Z,26
2023-05-13T04:20:26.469Z,26
2023-05-13T04:21:28.392Z,26
2023-05-13T04:22:29.977Z,26
2023-05-13T04:23:31.849Z,26
2023-05-13T04:24:33.459Z,26
2023-05-13T04:25:35.301Z,26
2023-05-13T04:26:37.086Z,26
2023-05-13T04:27:38.802Z,26
2023-05-13T04:28:40.655Z,26
2023-05-13T04:29:42.281Z,26
2023-05-13T04:30:43.946Z,26
2023-05-13T04:31:45.810Z,26
2023-05-13T04:32:48.024Z,26
2023-05-13T04:33:50.452Z,26
2023-05-13T04:34:52.365Z,26
2023-05-13T04:35:54.282Z,26
2023-05-13T04:36:56.157Z,26
2023-05-13T04:37:57.983Z,26
2023-05-13T04:38:59.887Z,26
2023-05-13T04:40:01.576Z,26
2023-05-13T04:41:03.469Z,26
2023-05-13T04:42:05.275Z,26
2023-05-13T04:43:07.157Z,26
2023-05-13T04:44:09.009Z,26
2023-05-13T04:45:10.871Z,26
2023-05-13T04:46:12.767Z,26
2023-05-13T04:47:14.632Z,26
2023-05-13T04:48:16.518Z,26
2023-05-13T04:49:18.358Z,26
2023-05-13T04:50:22.387Z,26.1
2023-05-13T04:51:26.292Z,26.1
2023-05-13T04:52:30.076Z,26.1
2023-05-13T04:53:31.817Z,26.1
2023-05-13T04:54:33.548Z,26.1
2023-05-13T04:55:35.242Z,26.1
2023-05-13T04:56:36.868Z,26.1
2023-05-13T04:57:38.702Z,26.1
2023-05-13T04:58:40.316Z,26.1
2023-05-13T04:59:42.452Z,26.2
2023-05-13T05:00:44.353Z,26.1
2023-05-13T05:01:46.212Z,26.1
2023-05-13T05:02:48.295Z,26.2
2023-05-13T05:03:50.550Z,26.2
2023-05-13T05:04:52.594Z,26.3
2023-05-13T05:05:54.448Z,26.3
2023-05-13T05:06:56.265Z,26.3
2023-05-13T05:07:58.125Z,26.4
2023-05-13T05:09:00.002Z,26.4
2023-05-13T05:10:01.952Z,26.4
2023-05-13T05:11:03.869Z,26.4
2023-05-13T05:12:05.624Z,26.4
2023-05-13T05:13:07.364Z,26.4
2023-05-13T05:14:09.289Z,26.5
2023-05-13T05:15:11.074Z,26.5
2023-05-13T05:16:12.920Z,26.5
2023-05-13T05:17:14.847Z,26.6
2023-05-13T05:18:19.458Z,26.6
2023-05-13T05:19:21.418Z,26.7
2023-05-13T05:20:23.659Z,26.7
2023-05-13T05:21:25.652Z,26.7
2023-05-13T05:22:27.504Z,26.8
2023-05-13T05:23:29.357Z,26.8
2023-05-13T05:24:31.304Z,26.8
2023-05-13T05:25:33.361Z,26.9
2023-05-13T05:26:35.233Z,26.9
2023-05-13T05:27:37.060Z,26.9
2023-05-13T05:28:38.885Z,26.9
2023-05-13T05:29:40.714Z,26.9
2023-05-13T05:30:42.589Z,26.9
2023-05-13T05:31:44.490Z,26.9
2023-05-13T05:32:46.464Z,27
2023-05-13T05:33:48.468Z,27
2023-05-13T05:34:50.327Z,27
2023-05-13T05:35:51.958Z,27
2023-05-13T05:36:53.521Z,27
2023-05-13T05:37:55.121Z,27.1
2023-05-13T05:38:56.999Z,27.1
2023-05-13T05:39:58.928Z,27.1
2023-05-13T05:41:00.811Z,27.1
2023-05-13T05:42:02.648Z,27.1
2023-05-13T05:43:04.396Z,27.1
2023-05-13T05:44:06.259Z,27.2
2023-05-13T05:45:08.162Z,27.2
2023-05-13T05:46:10.098Z,27.2
2023-05-13T05:47:12.072Z,27.2
2023-05-13T05:48:13.960Z,27.2
2023-05-13T05:49:15.697Z,27.3
2023-05-13T05:50:17.554Z,27.3
2023-05-13T05:51:19.296Z,27.3
2023-05-13T05:52:21.232Z,27.3
2023-05-13T05:53:23.104Z,27.3
2023-05-13T05:54:25.031Z,27.3
2023-05-13T05:55:26.917Z,27.3
2023-05-13T05:56:28.789Z,27.3
2023-05-13T05:57:30.664Z,27.3
2023-05-13T05:58:32.557Z,27.3
2023-05-13T05:59:34.214Z,27.3
2023-05-13T06:00:35.960Z,27.4
2023-05-13T06:01:37.637Z,27.4
2023-05-13T06:02:39.665Z,27.4
2023-05-13T06:03:42.007Z,27.4
2023-05-13T06:04:44.402Z,27.4
2023-05-13T06:05:46.632Z,27.5
2023-05-13T06:06:48.539Z,27.5
2023-05-13T06:07:50.612Z,27.5
2023-05-13T06:08:52.598Z,27.5
2023-05-13T06:09:54.221Z,27.5
2023-05-13T06:10:56.171Z,27.5
2023-05-13T06:11:58.080Z,27.5
2023-05-13T06:13:00.090Z,27.5
2023-05-13T06:14:01.943Z,27.5
2023-05-13T06:15:03.790Z,27.5
2023-05-13T06:16:05.717Z,27.5
2023-05-13T06:17:07.607Z,27.5
2023-05-13T06:18:09.534Z,27.5
2023-05-13T06:19:11.551Z,27.5
2023-05-13T06:20:14.077Z,27.6
2023-05-13T06:21:16.022Z,27.6
2023-05-13T06:22:17.762Z,27.5
2023-05-13T06:23:19.571Z,27.6
2023-05-13T06:24:21.385Z,27.6
2023-05-13T06:25:23.214Z,27.6
2023-05-13T06:26:25.118Z,27.6
2023-05-13T06:27:27.051Z,27.6
2023-05-13T06:28:28.901Z,27.6
2023-05-13T06:29:30.651Z,27.6
2023-05-13T06:30:32.579Z,27.6
2023-05-13T06:31:34.490Z,27.6
2023-05-13T06:32:36.298Z,27.6
2023-05-13T06:33:58.995Z,27.7
2023-05-13T06:35:00.790Z,27.7
2023-05-13T06:36:02.524Z,27.7
2023-05-13T06:37:04.368Z,27.7
2023-05-13T06:38:06.200Z,27.7
2023-05-13T06:39:07.999Z,27.7
2023-05-13T06:40:09.711Z,27.7
2023-05-13T06:41:11.553Z,27.7
2023-05-13T06:42:14.340Z,27.7
2023-05-13T06:43:16.383Z,27.7
2023-05-13T06:44:18.330Z,27.7
2023-05-13T06:45:20.177Z,27.7
2023-05-13T06:46:22.066Z,27.7
2023-05-13T06:47:24.376Z,27.7
2023-05-13T06:48:26.614Z,27.8
2023-05-13T06:49:28.500Z,27.8
2023-05-13T06:50:33.325Z,27.8
2023-05-13T06:51:35.053Z,27.8
2023-05-13T06:52:36.828Z,27.8
2023-05-13T06:53:40.764Z,27.8
2023-05-13T06:54:42.702Z,27.8
2023-05-13T06:55:44.535Z,27.8
2023-05-13T06:56:46.159Z,27.8
2023-05-13T06:57:48.002Z,27.8
2023-05-13T06:58:49.776Z,27.8
2023-05-13T06:59:51.391Z,27.8
2023-05-13T07:00:53.116Z,27.8
2023-05-13T07:01:55.115Z,27.8
2023-05-13T07:02:57.028Z,27.9
2023-05-13T07:03:59.088Z,27.9
2023-05-13T07:05:01.068Z,27.9
2023-05-13T07:06:02.933Z,27.9
2023-05-13T07:07:04.560Z,27.9
2023-05-13T07:08:06.312Z,27.9
2023-05-13T07:09:08.613Z,28
2023-05-13T07:10:10.783Z,28
2023-05-13T07:11:12.676Z,28
2023-05-13T07:12:14.422Z,27.9
2023-05-13T07:13:16.271Z,28
2023-05-13T07:14:18.213Z,28
2023-05-13T07:15:20.199Z,28
2023-05-13T07:16:23.076Z,28
2023-05-13T07:17:24.873Z,28
2023-05-13T07:18:27.154Z,28
2023-05-13T07:19:29.620Z,28
2023-05-13T07:20:31.455Z,28
2023-05-13T07:21:33.226Z,28
2023-05-13T07:22:35.077Z,28
2023-05-13T07:23:36.923Z,28
2023-05-13T07:24:38.770Z,28
2023-05-13T07:25:40.772Z,28
2023-05-13T07:26:42.680Z,28
2023-05-13T07:27:44.343Z,28
2023-05-13T07:28:46.178Z,28
2023-05-13T07:29:48.312Z,28
2023-05-13T07:30:50.129Z,28
2023-05-13T07:31:52.123Z,28
2023-05-13T07:32:54.172Z,28
2023-05-13T07:33:56.033Z,28
2023-05-13T07:34:57.885Z,28
2023-05-13T07:35:59.694Z,28
2023-05-13T07:37:01.587Z,28
2023-05-13T07:38:04.419Z,28
2023-05-13T07:39:07.078Z,28
2023-05-13T07:40:08.997Z,28
2023-05-13T07:41:10.739Z,28
2023-05-13T07:42:12.623Z,28
2023-05-13T07:43:14.541Z,28
2023-05-13T07:44:16.370Z,28
2023-05-13T07:45:18.266Z,28
2023-05-13T07:46:19.951Z,28
2023-05-13T07:47:22.039Z,28
2023-05-13T07:48:24.199Z,28
2023-05-13T07:49:25.849Z,28.1
2023-05-13T07:50:27.483Z,28.1
2023-05-13T07:51:29.110Z,28
2023-05-13T07:52:30.978Z,28
2023-05-13T07:53:32.842Z,28.1
2023-05-13T07:54:34.586Z,28.1
2023-05-13T07:55:36.333Z,28.1
2023-05-13T07:56:38.237Z,28.1
2023-05-13T07:57:39.900Z,28.1
2023-05-13T07:58:41.771Z,28.1
2023-05-13T07:59:44.836Z,28.1
2023-05-13T08:00:46.869Z,28.1
2023-05-13T08:01:48.455Z,28.1
2023-05-13T08:02:50.106Z,28.1
2023-05-13T08:03:52.691Z,28.1
2023-05-13T08:04:55.255Z,28.1
2023-05-13T08:05:57.263Z,28.1
2023-05-13T08:06:58.951Z,28.1
2023-05-13T08:08:00.557Z,28.1
2023-05-13T08:09:02.334Z,28.1
2023-05-13T08:10:04.126Z,28.1
2023-05-13T08:11:05.949Z,28.1
2023-05-13T08:12:07.778Z,28.1
2023-05-13T08:13:09.524Z,28.1
2023-05-13T08:14:11.440Z,28.1
2023-05-13T08:15:13.135Z,28.1
2023-05-13T08:16:15.041Z,28.1
2023-05-13T08:17:17.025Z,28.1
2023-05-13T08:18:18.877Z,28.1
2023-05-13T08:19:20.617Z,28.1
2023-05-13T08:20:22.842Z,28.1
2023-05-13T08:21:24.801Z,28.1
2023-05-13T08:22:26.683Z,28.1
2023-05-13T08:23:40.777Z,28.1
2023-05-13T08:24:47.820Z,28.1
2023-05-13T08:25:49.738Z,28.1
2023-05-13T08:26:51.406Z,28.1
2023-05-13T08:27:53.052Z,28.1
2023-05-13T08:28:57.243Z,28.1
2023-05-13T08:29:58.872Z,28.1
2023-05-13T08:31:00.482Z,28.1
2023-05-13T08:32:02.561Z,28.1
2023-05-13T08:33:04.736Z,28.1
2023-05-13T08:34:06.647Z,28.1
2023-05-13T08:35:08.240Z,28.1
2023-05-13T08:36:09.857Z,28.1
2023-05-13T08:37:11.504Z,28.1
2023-05-13T08:38:13.377Z,28.1
2023-05-13T08:39:15.228Z,28.1
2023-05-13T08:40:17.005Z,28.1
2023-05-13T08:41:19.889Z,28.1
2023-05-13T08:42:23.810Z,28.1
2023-05-13T08:43:25.697Z,28.1
2023-05-13T08:44:27.550Z,28.1
2023-05-13T08:45:29.287Z,28.1
2023-05-13T08:46:31.231Z,28.1
2023-05-13T08:47:35.467Z,28.1
2023-05-13T08:48:38.953Z,28.1
2023-05-13T08:49:40.831Z,28.1
2023-05-13T08:50:42.556Z,28.1
2023-05-13T08:51:44.424Z,28.1
2023-05-13T08:52:46.119Z,28.1
2023-05-13T08:53:47.767Z,28.1
2023-05-13T08:54:49.637Z,28.1
2023-05-13T08:55:51.557Z,28.1
2023-05-13T08:56:53.471Z,28.1
2023-05-13T08:57:55.084Z,28.1
2023-05-13T08:58:56.745Z,28.1
2023-05-13T08:59:58.352Z,28.1
2023-05-13T09:01:00.060Z,28.1
2023-05-13T09:02:02.010Z,28.1
2023-05-13T09:03:03.808Z,28.1
2023-05-13T09:04:05.880Z,28.1
2023-05-13T09:05:07.837Z,28.1
2023-05-13T09:06:09.882Z,28.1
2023-05-13T09:07:11.626Z,28.1
2023-05-13T09:08:13.476Z,28.1
2023-05-13T09:09:15.311Z,28.1
2023-05-13T09:10:17.089Z,28.1
2023-05-13T09:11:18.915Z,28.1
2023-05-13T09:12:20.545Z,28.1
2023-05-13T09:13:22.137Z,28.1
2023-05-13T09:14:23.836Z,28.1
2023-05-13T09:15:25.900Z,28.1
2023-05-13T09:16:28.285Z,28.1
2023-05-13T09:17:30.653Z,28.1
2023-05-13T09:18:32.899Z,28.1
2023-05-13T09:19:35.416Z,28.1
2023-05-13T09:20:37.827Z,28.1
2023-05-13T09:21:39.508Z,28.1
2023-05-13T09:22:41.327Z,28.2
2023-05-13T09:23:43.174Z,28.2
2023-05-13T09:24:44.821Z,28.1
2023-05-13T09:25:46.640Z,28.2
2023-05-13T09:26:48.430Z,28.1
2023-05-13T09:27:50.290Z,28.2
2023-05-13T09:28:52.120Z,28.2
2023-05-13T09:29:53.711Z,28.1
2023-05-13T09:30:55.711Z,28.1
2023-05-13T09:31:57.981Z,28.1
2023-05-13T09:32:59.870Z,28.1
2023-05-13T09:34:02.012Z,28.1
2023-05-13T09:35:03.587Z,28.1
2023-05-13T09:36:05.275Z,28.2
2023-05-13T09:37:06.953Z,28.2
2023-05-13T09:38:08.873Z,28.2
2023-05-13T09:39:10.714Z,28.1
2023-05-13T09:40:12.572Z,28.1
2023-05-13T09:41:14.260Z,28.1
2023-05-13T09:42:16.175Z,28.1
2023-05-13T09:43:18.096Z,28.2
2023-05-13T09:44:19.705Z,28.1
2023-05-13T09:45:21.718Z,28.1
2023-05-13T09:46:24.487Z,28.2
2023-05-13T09:47:26.507Z,28.2
2023-05-13T09:48:28.400Z,28.2
2023-05-13T09:49:30.748Z,28.2
2023-05-13T09:50:32.607Z,28.2
2023-05-13T09:51:34.432Z,28.1
2023-05-13T09:52:36.013Z,28.1
2023-05-13T09:53:37.616Z,28.1
2023-05-13T09:54:39.192Z,28
2023-05-13T09:55:41.067Z,27.8
2023-05-13T09:56:42.883Z,27.7
2023-05-13T09:57:44.734Z,27.7
2023-05-13T09:58:46.582Z,27.7
2023-05-13T09:59:48.438Z,27.7
2023-05-13T10:00:50.259Z,27.7
2023-05-13T10:01:55.457Z,27.8
2023-05-13T10:02:57.451Z,27.8
2023-05-13T10:03:59.493Z,27.9
2023-05-13T10:05:01.810Z,27.9
2023-05-13T10:06:03.774Z,28
2023-05-13T10:07:05.692Z,28
2023-05-13T10:08:07.597Z,28
2023-05-13T10:09:09.524Z,28
2023-05-13T10:10:11.347Z,28
2023-05-13T10:11:13.722Z,28
2023-05-13T10:12:17.185Z,28.1
2023-05-13T10:13:19.086Z,28.1
2023-05-13T10:14:21.001Z,28.1
2023-05-13T10:15:22.847Z,28.1
2023-05-13T10:16:24.646Z,28.1
2023-05-13T10:17:26.785Z,28.2
2023-05-13T10:18:28.960Z,28.2
2023-05-13T10:19:31.343Z,28.2
2023-05-13T10:20:33.036Z,28.3
2023-05-13T10:21:34.654Z,28.3
2023-05-13T10:22:36.255Z,28.3
2023-05-13T10:23:37.925Z,28.4
2023-05-13T10:24:39.524Z,28.4
2023-05-13T10:25:41.154Z,28.4
2023-05-13T10:26:42.997Z,28.4
2023-05-13T10:27:44.833Z,28.4
2023-05-13T10:28:46.471Z,28.4
2023-05-13T10:29:48.247Z,28.4
2023-05-13T10:30:52.840Z,28.4
2023-05-13T10:31:55.411Z,28.5
2023-05-13T10:32:57.405Z,28.5
2023-05-13T10:33:59.479Z,28.5
2023-05-13T10:35:01.399Z,28.5
2023-05-13T10:36:03.250Z,28.5
2023-05-13T10:37:05.072Z,28.5
2023-05-13T10:38:06.742Z,28.6
2023-05-13T10:39:08.604Z,28.6
2023-05-13T10:40:10.406Z,28.6
2023-05-13T10:41:12.265Z,28.6
2023-05-13T10:42:14.015Z,28.5
2023-05-13T10:43:15.901Z,28.5
2023-05-13T10:44:17.676Z,28.5
2023-05-13T10:45:19.429Z,28.5
2023-05-13T10:46:21.362Z,28.5
2023-05-13T10:47:23.460Z,28.5
2023-05-13T10:48:25.789Z,28.5
2023-05-13T10:49:28.162Z,28.5
2023-05-13T10:50:29.929Z,28.5
2023-05-13T10:51:31.809Z,28.5
2023-05-13T10:52:33.686Z,28.5
2023-05-13T10:53:35.364Z,28.5
2023-05-13T10:54:37.033Z,28.5
2023-05-13T10:55:38.814Z,28.5
2023-05-13T10:56:40.623Z,28.5
2023-05-13T10:57:42.495Z,28.5
2023-05-13T10:58:44.352Z,28.5
2023-05-13T10:59:47.904Z,28.5
2023-05-13T11:00:49.771Z,28.5
2023-05-13T11:01:51.388Z,28.4
2023-05-13T11:02:53.440Z,28.5
2023-05-13T11:03:55.738Z,28.5
2023-05-13T11:04:58.264Z,28.5
2023-05-13T11:06:00.162Z,28.5
2023-05-13T11:07:02.077Z,28.5
2023-05-13T11:08:03.753Z,28.5
2023-05-13T11:09:05.695Z,28.5
2023-05-13T11:10:07.322Z,28.5
2023-05-13T11:11:08.938Z,28.5
2023-05-13T11:12:10.547Z,28.5
2023-05-13T11:13:12.445Z,28.6
2023-05-13T11:14:14.142Z,28.5
2023-05-13T11:15:15.779Z,28.5
2023-05-13T11:16:17.487Z,28.5
2023-05-13T11:17:19.473Z,28.5
2023-05-13T11:18:21.107Z,28.5
2023-05-13T11:19:22.709Z,28.6
2023-05-13T11:20:24.516Z,28.5
2023-05-13T11:21:26.177Z,28.5
2023-05-13T11:22:27.915Z,28.6
2023-05-13T11:23:29.658Z,28.6
2023-05-13T11:24:31.256Z,28.6
2023-05-13T11:25:33.156Z,28.6
2023-05-13T11:26:34.731Z,28.6
2023-05-13T11:27:36.365Z,28.6
2023-05-13T11:28:38.181Z,28.6
2023-05-13T11:29:39.809Z,28.6
2023-05-13T11:30:41.422Z,28.6
2023-05-13T11:31:43.503Z,28.6
2023-05-13T11:32:46.061Z,28.7
2023-05-13T11:33:48.066Z,28.7
2023-05-13T11:34:49.758Z,28.7
2023-05-13T11:35:51.439Z,28.7
2023-05-13T11:36:53.030Z,28.7
2023-05-13T11:37:55.545Z,28.7
2023-05-13T11:39:02.020Z,28.7
2023-05-13T11:40:03.967Z,28.6
2023-05-13T11:41:05.813Z,28.7
2023-05-13T11:42:07.602Z,28.7
2023-05-13T11:43:09.418Z,28.7
2023-05-13T11:44:11.254Z,28.7
2023-05-13T11:45:13.156Z,28.7
2023-05-13T11:46:15.013Z,28.7
2023-05-13T11:47:17.027Z,28.7
2023-05-13T11:48:18.912Z,28.7
2023-05-13T11:49:20.774Z,28.7
2023-05-13T11:50:22.659Z,28.7
2023-05-13T11:51:24.543Z,28.7
2023-05-13T11:52:26.377Z,28.7
2023-05-13T11:53:28.329Z,28.7
2023-05-13T11:54:30.294Z,28.7
2023-05-13T11:55:32.140Z,28.8
2023-05-13T11:56:34.048Z,28.8
2023-05-13T11:57:35.833Z,28.8
2023-05-13T11:58:37.680Z,28.8
2023-05-13T11:59:47.787Z,28.8
2023-05-13T12:00:50.293Z,28.8
2023-05-13T12:01:52.215Z,28.8
2023-05-13T12:02:54.535Z,28.8
2023-05-13T12:03:56.664Z,28.8
2023-05-13T12:04:58.551Z,28.8
2023-05-13T12:06:00.457Z,28.8
2023-05-13T12:07:02.412Z,28.8
2023-05-13T12:08:04.319Z,28.8
2023-05-13T12:09:09.720Z,28.8
2023-05-13T12:10:11.941Z,28.8
2023-05-13T12:11:14.016Z,28.8
2023-05-13T12:12:15.650Z,28.8
2023-05-13T12:13:17.402Z,28.8
2023-05-13T12:14:19.039Z,28.8
2023-05-13T12:15:20.863Z,28.8
2023-05-13T12:16:24.634Z,28.8
2023-05-13T12:17:26.572Z,28.8
2023-05-13T12:18:28.564Z,28.8
2023-05-13T12:19:30.407Z,28.8
2023-05-13T12:20:32.100Z,28.8
2023-05-13T12:21:33.722Z,28.8
2023-05-13T12:22:35.455Z,28.8
2023-05-13T12:23:37.078Z,28.8
2023-05-13T12:24:39.108Z,28.8
2023-05-13T12:25:40.880Z,28.8
2023-05-13T12:26:42.996Z,28.8
2023-05-13T12:27:44.556Z,28.8
2023-05-13T12:28:46.397Z,28.8
2023-05-13T12:29:48.238Z,28.8
2023-05-13T12:30:50.156Z,28.8
2023-05-13T12:31:52.060Z,28.8
2023-05-13T12:32:54.488Z,28.8
2023-05-13T12:33:56.567Z,28.8
2023-05-13T12:34:58.409Z,28.8
2023-05-13T12:36:00.287Z,28.8
2023-05-13T12:37:02.194Z,28.8
2023-05-13T12:38:04.181Z,28.8
2023-05-13T12:39:06.153Z,28.8
2023-05-13T12:40:08.042Z,28.8
2023-05-13T12:41:09.980Z,28.7
2023-05-13T12:42:11.873Z,28.8
2023-05-13T12:43:13.729Z,28.8
2023-05-13T12:44:15.572Z,28.8
2023-05-13T12:45:17.418Z,28.8
2023-05-13T12:46:19.339Z,28.7
2023-05-13T12:47:21.433Z,28.8
2023-05-13T12:48:23.276Z,28.8
2023-05-13T12:49:25.184Z,28.8
2023-05-13T12:50:27.070Z,28.8
2023-05-13T12:51:28.893Z,28.7
2023-05-13T12:52:30.680Z,28.7
2023-05-13T12:53:32.529Z,28.8
2023-05-13T12:54:34.163Z,28.8
2023-05-13T12:55:35.868Z,28.7
2023-05-13T12:56:37.829Z,28.7
2023-05-13T12:57:39.724Z,28.7
2023-05-13T12:58:41.601Z,28.7
2023-05-13T12:59:43.432Z,28.7
2023-05-13T13:00:45.302Z,28.7
2023-05-13T13:01:47.587Z,28.7
2023-05-13T13:02:49.726Z,28.8
2023-05-13T13:03:51.992Z,28.7
2023-05-13T13:04:54.334Z,28.7
2023-05-13T13:05:58.608Z,28.7
2023-05-13T13:07:00.535Z,28.8
2023-05-13T13:08:02.424Z,28.7
2023-05-13T13:09:04.273Z,28.7
2023-05-13T13:11:08.115Z,28.7
2023-05-13T13:12:10.068Z,28.7
2023-05-13T13:13:12.038Z,28.7
2023-05-13T13:14:13.734Z,28.7
2023-05-13T13:15:15.570Z,28.7
2023-05-13T13:16:17.444Z,28.7
2023-05-13T13:17:19.620Z,28.7
2023-05-13T13:18:21.508Z,28.7
2023-05-13T13:19:23.466Z,28.7
2023-05-13T13:20:25.620Z,28.7
2023-05-13T13:21:27.393Z,28.7
2023-05-13T13:22:32.207Z,28.7
2023-05-13T13:23:34.226Z,28.7
2023-05-13T13:24:36.019Z,28.7
2023-05-13T13:25:37.837Z,28.7
2023-05-13T13:26:39.622Z,28.7
2023-05-13T13:27:41.210Z,28.7
2023-05-13T13:28:43.072Z,28.7
2023-05-13T13:29:45.003Z,28.7
2023-05-13T13:30:47.200Z,28.7
2023-05-13T13:31:49.497Z,28.7
2023-05-13T13:32:51.623Z,28.7
2023-05-13T13:33:53.659Z,28.7
2023-05-13T13:34:55.538Z,28.7
2023-05-13T13:35:57.406Z,28.6
2023-05-13T13:36:59.098Z,28.7
2023-05-13T13:38:00.987Z,28.6
2023-05-13T13:39:02.837Z,28.6
2023-05-13T13:40:04.427Z,28.6
2023-05-13T13:41:06.351Z,28.6
2023-05-13T13:42:08.272Z,28.6
2023-05-13T13:43:10.147Z,28.7
2023-05-13T13:44:11.981Z,28.7
2023-05-13T13:45:13.861Z,28.7
2023-05-13T13:46:15.784Z,28.7
2023-05-13T13:47:17.848Z,28.7
2023-05-13T13:48:19.587Z,28.7
2023-05-13T13:49:23.847Z,28.7
2023-05-13T13:50:25.953Z,28.7
2023-05-13T13:51:27.805Z,28.7
2023-05-13T13:52:29.629Z,28.7
2023-05-13T13:53:31.225Z,28.7
2023-05-13T13:54:33.113Z,28.7
2023-05-13T13:55:34.753Z,28.7